Time;durP1;ratioP1;P1;durP2;ratioP2;P2;SDS_P1;SDS_P2;PMS_P1;PMS_P2;Temp;Humidity;BMP_temperature;BMP_pressure;BME280_temperature;BME280_humidity;BME280_pressure;Samples;Min_cycle;Max_cycle;Signal;HPM_P1;HPM_P2
2021/01/30 00:00:24;;;;;;;4.15;1.70;;;;;;;;;;5006802;28;20113;-75
2021/01/30 00:02:50;;;;;;;3.40;1.30;;;;;;;;;;5022334;28;20438;-74
2021/01/30 00:05:15;;;;;;;5.20;1.90;;;;;;;;;;5020092;28;20476;-74
2021/01/30 00:07:41;;;;;;;3.00;1.10;;;;;;;;;;4994235;28;20081;-74
2021/01/30 00:10:16;;;;;;;2.83;0.82;;;;;;;;;;4994190;28;20380;-74
2021/01/30 00:12:47;;;;;;;3.35;1.75;;;;;;;;;;5007791;28;20078;-73
2021/01/30 00:15:16;;;;;;;3.67;1.23;;;;;;;;;;4978323;28;20045;-74
2021/01/30 00:17:48;;;;;;;2.80;1.13;;;;;;;;;;4981581;28;20030;-74
2021/01/30 00:20:24;;;;;;;4.15;1.25;;;;;;;;;;4998305;28;20029;-73
2021/01/30 00:22:55;;;;;;;4.03;1.35;;;;;;;;;;5014586;28;20026;-73
2021/01/30 00:25:22;;;;;;;3.60;1.23;;;;;;;;;;5014236;28;20484;-73
2021/01/30 00:27:47;;;;;;;3.60;1.48;;;;;;;;;;4995043;28;20038;-73
2021/01/30 00:30:14;;;;;;;2.88;1.13;;;;;;;;;;4997502;28;20033;-73
2021/01/30 00:32:39;;;;;;;2.45;1.27;;;;;;;;;;4997019;28;20065;-73
2021/01/30 00:35:05;;;;;;;3.13;1.02;;;;;;;;;;4977969;28;20534;-73
2021/01/30 00:37:30;;;;;;;2.33;1.25;;;;;;;;;;5014910;28;20034;-73
2021/01/30 00:39:56;;;;;;;2.42;1.00;;;;;;;;;;5016569;28;20617;-73
2021/01/30 00:42:24;;;;;;;2.08;0.82;;;;;;;;;;5032783;28;20046;-73
2021/01/30 00:44:50;;;;;;;2.97;1.08;;;;;;;;;;4998225;28;20048;-73
2021/01/30 00:47:15;;;;;;;3.03;1.00;;;;;;;;;;5013599;28;20100;-73
2021/01/30 00:49:44;;;;;;;1.88;0.77;;;;;;;;;;4996559;28;20045;-73
2021/01/30 00:52:10;;;;;;;2.42;0.95;;;;;;;;;;5013097;28;20030;-73
2021/01/30 00:54:35;;;;;;;2.95;1.20;;;;;;;;;;5012890;28;20042;-73
2021/01/30 00:57:01;;;;;;;4.03;1.00;;;;;;;;;;4980380;28;20034;-73
2021/01/30 00:59:26;;;;;;;2.95;1.10;;;;;;;;;;5014124;28;20045;-73
2021/01/30 01:01:52;;;;;;;3.72;1.30;;;;;;;;;;4980729;28;20060;-73
2021/01/30 01:04:18;;;;;;;2.80;0.77;;;;;;;;;;4996952;28;20404;-73
2021/01/30 01:06:43;;;;;;;2.88;1.10;;;;;;;;;;4996650;28;20388;-73
2021/01/30 01:09:09;;;;;;;2.33;0.85;;;;;;;;;;5012364;28;20053;-73
2021/01/30 01:11:35;;;;;;;2.50;1.17;;;;;;;;;;5012115;28;20515;-73
2021/01/30 01:14:00;;;;;;;3.90;1.40;;;;;;;;;;4996693;28;20037;-73
2021/01/30 01:16:26;;;;;;;2.35;0.98;;;;;;;;;;4996356;28;20396;-73
2021/01/30 01:18:51;;;;;;;3.67;1.63;;;;;;;;;;4976732;28;20435;-73
2021/01/30 01:21:17;;;;;;;3.85;1.05;;;;;;;;;;4977044;28;20396;-72
2021/01/30 01:23:42;;;;;;;5.28;1.30;;;;;;;;;;4976689;28;20046;-73
2021/01/30 01:26:08;;;;;;;4.10;1.33;;;;;;;;;;4977132;28;20030;-73
2021/01/30 01:28:34;;;;;;;1.65;0.88;;;;;;;;;;4976898;28;20038;-73
2021/01/30 01:30:59;;;;;;;2.72;0.90;;;;;;;;;;5002482;28;20038;-73
2021/01/30 01:33:25;;;;;;;3.00;1.23;;;;;;;;;;5013114;28;20037;-73
2021/01/30 01:35:50;;;;;;;3.28;1.63;;;;;;;;;;4979496;28;20415;-73
2021/01/30 01:38:16;;;;;;;3.53;1.00;;;;;;;;;;5012195;28;20257;-73
2021/01/30 01:40:41;;;;;;;2.85;1.50;;;;;;;;;;5012106;28;20403;-73
2021/01/30 01:43:15;;;;;;;2.55;1.38;;;;;;;;;;4995648;28;20064;-73
2021/01/30 01:45:41;;;;;;;3.13;1.08;;;;;;;;;;4996711;28;20041;-73
2021/01/30 01:48:10;;;;;;;4.25;1.00;;;;;;;;;;4996045;28;20156;-73
2021/01/30 01:50:43;;;;;;;3.47;1.10;;;;;;;;;;4979748;28;20034;-73
2021/01/30 01:53:08;;;;;;;2.70;0.93;;;;;;;;;;4995524;28;20034;-72
2021/01/30 01:55:34;;;;;;;2.72;1.15;;;;;;;;;;5013275;28;20038;-72
2021/01/30 01:57:59;;;;;;;3.85;1.13;;;;;;;;;;4995423;28;20492;-72
2021/01/30 02:00:25;;;;;;;4.30;1.10;;;;;;;;;;5015226;28;20372;-73
2021/01/30 02:02:51;;;;;;;2.08;1.00;;;;;;;;;;5014886;28;20057;-73
2021/01/30 02:05:28;;;;;;;3.05;1.30;;;;;;;;;;4996861;28;20029;-72
2021/01/30 02:07:56;;;;;;;3.72;1.35;;;;;;;;;;4995735;28;20033;-73
2021/01/30 02:10:24;;;;;;;3.42;1.00;;;;;;;;;;4996061;28;20092;-73
2021/01/30 02:12:50;;;;;;;3.67;1.08;;;;;;;;;;5015248;28;20041;-72
2021/01/30 02:15:16;;;;;;;3.83;1.33;;;;;;;;;;5013340;28;20095;-72
2021/01/30 02:17:54;;;;;;;3.25;0.73;;;;;;;;;;5004483;28;20041;-72
2021/01/30 02:20:37;;;;;;;3.90;1.00;;;;;;;;;;4995162;28;20589;-73
2021/01/30 02:23:27;;;;;;;3.88;1.23;;;;;;;;;;5011294;28;20037;-73
2021/01/30 02:26:23;;;;;;;4.18;1.23;;;;;;;;;;4993052;28;20035;-72
2021/01/30 02:29:12;;;;;;;2.78;1.35;;;;;;;;;;4991789;28;20040;-73
2021/01/30 02:31:46;;;;;;;3.10;0.88;;;;;;;;;;5003198;28;20489;-73
2021/01/30 02:34:24;;;;;;;4.57;1.30;;;;;;;;;;4999183;28;20108;-73
2021/01/30 02:37:14;;;;;;;3.60;1.00;;;;;;;;;;5012570;28;20038;-72
2021/01/30 02:39:44;;;;;;;6.00;1.58;;;;;;;;;;5010644;28;20055;-72
2021/01/30 02:42:17;;;;;;;4.10;1.50;;;;;;;;;;5011077;28;20054;-73
2021/01/30 02:44:57;;;;;;;4.25;1.00;;;;;;;;;;5010997;28;20631;-73
2021/01/30 02:47:23;;;;;;;3.97;1.05;;;;;;;;;;5011362;28;20030;-73
2021/01/30 02:49:53;;;;;;;3.38;0.93;;;;;;;;;;5020910;28;20041;-73
2021/01/30 02:52:21;;;;;;;2.90;1.10;;;;;;;;;;5006172;28;20033;-73
2021/01/30 02:54:47;;;;;;;2.58;0.80;;;;;;;;;;4994562;28;20075;-73
2021/01/30 02:57:15;;;;;;;2.88;0.77;;;;;;;;;;5020024;28;20033;-72
2021/01/30 02:59:48;;;;;;;4.38;1.48;;;;;;;;;;5014613;28;20444;-73
2021/01/30 03:02:14;;;;;;;2.85;1.00;;;;;;;;;;5014006;28;20060;-72
2021/01/30 03:04:39;;;;;;;3.83;1.02;;;;;;;;;;5000620;28;20046;-73
2021/01/30 03:07:12;;;;;;;3.15;1.02;;;;;;;;;;4994548;28;20029;-73
2021/01/30 03:10:05;;;;;;;4.22;0.95;;;;;;;;;;5010661;28;20392;-73
2021/01/30 03:12:33;;;;;;;;;;;;;;;;;;5012321;28;20030;-73
2021/01/30 03:15:01;;;;;;;4.80;0.80;;;;;;;;;;5010925;28;20282;-73
2021/01/30 03:17:27;;;;;;;3.42;1.25;;;;;;;;;;4977383;28;20030;-74
2021/01/30 03:19:54;;;;;;;2.97;1.05;;;;;;;;;;4978872;28;20041;-73
2021/01/30 03:22:19;;;;;;;2.25;0.77;;;;;;;;;;4994542;28;20910;-73
2021/01/30 03:24:45;;;;;;;3.80;1.08;;;;;;;;;;4994178;28;20041;-74
2021/01/30 03:27:37;;;;;;;4.82;1.27;;;;;;;;;;4977918;28;20041;-73
2021/01/30 03:30:06;;;;;;;2.70;0.80;;;;;;;;;;5009467;28;20184;-73
2021/01/30 03:32:31;;;;;;;2.53;1.08;;;;;;;;;;4994191;28;20032;-73
2021/01/30 03:34:57;;;;;;;3.22;0.90;;;;;;;;;;4995481;28;20041;-73
2021/01/30 03:37:23;;;;;;;4.00;1.52;;;;;;;;;;5015742;28;20391;-73
2021/01/30 03:39:48;;;;;;;3.67;0.95;;;;;;;;;;4997986;28;20041;-73
2021/01/30 03:42:14;;;;;;;3.03;1.25;;;;;;;;;;4997887;28;20380;-73
2021/01/30 03:44:39;;;;;;;3.05;1.00;;;;;;;;;;4995864;28;20045;-73
2021/01/30 03:47:05;;;;;;;1.92;0.80;;;;;;;;;;4997617;28;20037;-73
2021/01/30 03:49:30;;;;;;;2.45;0.68;;;;;;;;;;4997671;28;20084;-73
2021/01/30 03:51:56;;;;;;;3.17;0.88;;;;;;;;;;4994776;28;20027;-73
2021/01/30 03:54:21;;;;;;;2.75;0.70;;;;;;;;;;4995562;28;20455;-73
2021/01/30 03:56:47;;;;;;;2.50;1.00;;;;;;;;;;5013973;28;20388;-73
2021/01/30 03:59:16;;;;;;;3.20;1.30;;;;;;;;;;4997788;28;20397;-73
2021/01/30 04:01:41;;;;;;;3.70;1.33;;;;;;;;;;4997284;28;20026;-74
2021/01/30 04:04:07;;;;;;;3.72;1.13;;;;;;;;;;4997855;28;20038;-75
2021/01/30 04:06:33;;;;;;;4.20;1.58;;;;;;;;;;4997793;28;20427;-76
2021/01/30 04:08:58;;;;;;;3.05;1.17;;;;;;;;;;4997591;28;20045;-76
2021/01/30 04:11:28;;;;;;;3.13;0.95;;;;;;;;;;4997986;28;20034;-76
2021/01/30 04:13:53;;;;;;;3.75;1.48;;;;;;;;;;4978172;28;20507;-75
2021/01/30 04:16:19;;;;;;;2.58;0.68;;;;;;;;;;4962050;28;20030;-75
2021/01/30 04:18:45;;;;;;;3.28;1.35;;;;;;;;;;4996408;28;20034;-75
2021/01/30 04:21:10;;;;;;;4.50;1.13;;;;;;;;;;5000731;28;20022;-75
2021/01/30 04:23:35;;;;;;;3.80;1.17;;;;;;;;;;5017030;28;20119;-74
2021/01/30 04:26:01;;;;;;;2.92;0.98;;;;;;;;;;5016875;28;20443;-74
2021/01/30 04:28:26;;;;;;;2.95;0.80;;;;;;;;;;5000125;28;20064;-74
2021/01/30 04:30:52;;;;;;;3.25;0.90;;;;;;;;;;5007582;28;20369;-74
2021/01/30 04:33:17;;;;;;;3.55;0.77;;;;;;;;;;4996955;28;20034;-74
2021/01/30 04:35:43;;;;;;;3.33;1.23;;;;;;;;;;5013395;28;20515;-76
2021/01/30 04:38:08;;;;;;;2.90;0.90;;;;;;;;;;4997080;28;20038;-77
2021/01/30 04:40:39;;;;;;;2.70;1.08;;;;;;;;;;4997013;28;20030;-78
2021/01/30 04:43:15;;;;;;;2.55;0.80;;;;;;;;;;4981042;28;20555;-78
2021/01/30 04:46:01;;;;;;;3.60;0.90;;;;;;;;;;4996238;28;20026;-78
2021/01/30 04:48:49;;;;;;;4.85;1.45;;;;;;;;;;5013338;28;20511;-78
2021/01/30 04:51:32;;;;;;;3.30;0.80;;;;;;;;;;4978916;28;20050;-78
2021/01/30 04:54:31;;;;;;;2.35;0.60;;;;;;;;;;4977253;28;20030;-77
2021/01/30 04:57:20;;;;;;;2.75;0.98;;;;;;;;;;4994689;28;20050;-77
2021/01/30 05:00:00;;;;;;;2.35;1.00;;;;;;;;;;5009484;28;20358;-77
2021/01/30 05:02:40;;;;;;;3.55;1.17;;;;;;;;;;5009241;28;20034;-78
2021/01/30 05:05:07;;;;;;;3.10;0.75;;;;;;;;;;4980206;28;20038;-79
2021/01/30 05:07:45;;;;;;;2.40;0.70;;;;;;;;;;4995971;28;20041;-78
2021/01/30 05:10:16;;;;;;;4.18;1.35;;;;;;;;;;4996698;28;20065;-78
2021/01/30 05:13:02;;;;;;;2.05;0.85;;;;;;;;;;4996807;28;20045;-77
2021/01/30 05:15:32;;;;;;;3.30;0.80;;;;;;;;;;5013941;28;20025;-77
2021/01/30 05:18:06;;;;;;;2.80;0.55;;;;;;;;;;4993358;28;20038;-77
2021/01/30 05:20:35;;;;;;;2.45;0.70;;;;;;;;;;4961698;28;20587;-77
2021/01/30 05:23:05;;;;;;;2.45;0.75;;;;;;;;;;5008813;28;20033;-77
2021/01/30 05:25:31;;;;;;;3.15;1.00;;;;;;;;;;4996546;28;20116;-76
2021/01/30 05:28:21;;;;;;;1.63;0.47;;;;;;;;;;4993042;28;20121;-77
2021/01/30 05:31:42;;;;;;;1.95;0.70;;;;;;;;;;5000807;28;20526;-77
2021/01/30 05:34:10;;;;;;;2.20;0.70;;;;;;;;;;4923760;28;20039;-77
2021/01/30 05:36:38;;;;;;;2.63;0.60;;;;;;;;;;5012368;28;20503;-77
2021/01/30 05:39:18;;;;;;;1.98;0.88;;;;;;;;;;5011984;28;20036;-76
2021/01/30 05:42:05;;;;;;;2.10;0.57;;;;;;;;;;5012454;28;20026;-76
2021/01/30 05:44:57;;;;;;;1.48;0.45;;;;;;;;;;5013291;28;20503;-76
2021/01/30 05:47:24;;;;;;;2.85;0.75;;;;;;;;;;4994153;28;20536;-76
2021/01/30 05:50:02;;;;;;;2.40;0.63;;;;;;;;;;4992635;28;20030;-77
2021/01/30 05:52:33;;;;;;;2.60;0.47;;;;;;;;;;5003289;28;20100;-76
2021/01/30 05:54:58;;;;;;;2.50;0.80;;;;;;;;;;4995880;28;20049;-76
2021/01/30 05:57:24;;;;;;;2.85;1.08;;;;;;;;;;4994999;28;20041;-76
2021/01/30 05:59:54;;;;;;;2.10;0.77;;;;;;;;;;4977771;28;20045;-75
2021/01/30 06:02:22;;;;;;;1.30;0.40;;;;;;;;;;4960036;28;20022;-76
2021/01/30 06:04:48;;;;;;;1.45;0.40;;;;;;;;;;4973758;28;20066;-76
2021/01/30 06:07:22;;;;;;;2.20;0.55;;;;;;;;;;4995572;28;20480;-76
2021/01/30 06:09:48;;;;;;;2.15;0.50;;;;;;;;;;5011445;28;20034;-76
2021/01/30 06:12:20;;;;;;;2.40;0.75;;;;;;;;;;4979791;28;20096;-76
2021/01/30 06:14:45;;;;;;;1.85;0.43;;;;;;;;;;5013081;28;20080;-76
2021/01/30 06:17:23;;;;;;;1.80;0.60;;;;;;;;;;4975709;28;20030;-76
2021/01/30 06:20:10;;;;;;;3.10;0.47;;;;;;;;;;4991911;28;20038;-76
2021/01/30 06:22:36;;;;;;;2.58;0.70;;;;;;;;;;4991854;28;20038;-76
2021/01/30 06:25:30;;;;;;;1.50;0.40;;;;;;;;;;4990908;28;20139;-76
2021/01/30 06:27:58;;;;;;;1.73;0.60;;;;;;;;;;4996070;28;20041;-76
2021/01/30 06:30:31;;;;;;;1.70;0.45;;;;;;;;;;4979064;28;20049;-76
2021/01/30 06:32:59;;;;;;;1.65;0.47;;;;;;;;;;4994994;28;20033;-76
2021/01/30 06:35:26;;;;;;;1.80;0.60;;;;;;;;;;5011404;28;20085;-75
2021/01/30 06:37:53;;;;;;;2.78;0.60;;;;;;;;;;4975799;28;20488;-76
2021/01/30 06:40:19;;;;;;;1.77;0.52;;;;;;;;;;4993305;28;20044;-76
2021/01/30 06:42:45;;;;;;;1.90;0.60;;;;;;;;;;4998125;28;20030;-76
2021/01/30 06:45:21;;;;;;;0.90;0.38;;;;;;;;;;5010906;28;20034;-76
2021/01/30 06:47:47;;;;;;;2.60;0.60;;;;;;;;;;4995780;28;20033;-76
2021/01/30 06:50:25;;;;;;;1.60;0.30;;;;;;;;;;4978231;28;20042;-76
2021/01/30 06:52:50;;;;;;;1.75;0.63;;;;;;;;;;4976442;28;20484;-76
2021/01/30 06:55:15;;;;;;;2.65;0.50;;;;;;;;;;4993454;28;20046;-76
2021/01/30 06:57:50;;;;;;;1.77;0.40;;;;;;;;;;4994511;28;20384;-76
2021/01/30 07:00:15;;;;;;;1.38;0.40;;;;;;;;;;4997727;28;20041;-76
2021/01/30 07:02:47;;;;;;;1.83;0.50;;;;;;;;;;5017322;28;20095;-76
2021/01/30 07:05:46;;;;;;;2.13;0.77;;;;;;;;;;5002743;28;20045;-75
2021/01/30 07:08:27;;;;;;;1.20;0.40;;;;;;;;;;4952595;28;20049;-75
2021/01/30 07:11:17;;;;;;;4.00;1.58;;;;;;;;;;5009552;28;20084;-76
2021/01/30 07:13:55;;;;;;;3.05;0.50;;;;;;;;;;5011074;28;20096;-75
2021/01/30 07:16:26;;;;;;;2.53;0.60;;;;;;;;;;5012209;28;20128;-75
2021/01/30 07:19:25;;;;;;;1.73;0.60;;;;;;;;;;4998125;28;20042;-76
2021/01/30 07:21:54;;;;;;;3.25;1.30;;;;;;;;;;4991111;28;20030;-75
2021/01/30 07:25:04;;;;;;;321.75;203.05;;;;;;;;;;5000082;28;20084;-76
2021/01/30 07:27:35;;;;;;;491.88;341.90;;;;;;;;;;4987334;28;20053;-75
2021/01/30 07:30:11;;;;;;;508.67;347.08;;;;;;;;;;4994694;28;20041;-75
2021/01/30 07:32:43;;;;;;;531.08;374.25;;;;;;;;;;4995463;28;20038;-75
2021/01/30 07:35:19;;;;;;;635.20;457.38;;;;;;;;;;5022504;28;20034;-75
2021/01/30 07:37:52;;;;;;;638.05;463.90;;;;;;;;;;5010382;28;20042;-76
2021/01/30 07:40:21;;;;;;;768.72;539.80;;;;;;;;;;4984630;28;20022;-76
2021/01/30 07:42:56;;;;;;;664.78;485.83;;;;;;;;;;4959102;28;20031;-77
2021/01/30 07:45:29;;;;;;;822.58;569.83;;;;;;;;;;4961756;28;20084;-78
2021/01/30 07:48:11;;;;;;;770.72;539.13;;;;;;;;;;4975077;28;20166;-79
2021/01/30 07:50:38;;;;;;;700.97;498.30;;;;;;;;;;4990705;28;20038;-78
2021/01/30 07:53:10;;;;;;;657.42;463.27;;;;;;;;;;4988850;28;20109;-78
2021/01/30 07:55:36;;;;;;;600.28;426.75;;;;;;;;;;4994101;28;20048;-78
2021/01/30 07:58:17;;;;;;;606.55;425.50;;;;;;;;;;4995064;28;20033;-78
2021/01/30 08:01:01;;;;;;;561.80;399.58;;;;;;;;;;4991848;28;20492;-78
2021/01/30 08:04:06;;;;;;;536.72;376.80;;;;;;;;;;4993642;28;20427;-78
2021/01/30 08:06:52;;;;;;;513.10;352.67;;;;;;;;;;4991822;28;20042;-76
2021/01/30 08:09:30;;;;;;;486.58;336.98;;;;;;;;;;4990794;28;20022;-76
2021/01/30 08:12:20;;;;;;;470.42;319.70;;;;;;;;;;4985703;28;20046;-76
2021/01/30 08:15:00;;;;;;;455.65;306.42;;;;;;;;;;4991904;28;20045;-76
2021/01/30 08:17:37;;;;;;;422.05;280.33;;;;;;;;;;4995809;28;20048;-76
2021/01/30 08:20:15;;;;;;;395.70;258.88;;;;;;;;;;4990050;28;20077;-76
2021/01/30 08:23:00;;;;;;;373.83;244.15;;;;;;;;;;4994276;28;20134;-75
2021/01/30 08:25:28;;;;;;;351.45;228.55;;;;;;;;;;4993512;28;20039;-76
2021/01/30 08:28:00;;;;;;;327.65;212.10;;;;;;;;;;4994026;28;20069;-76
2021/01/30 08:30:25;;;;;;;297.40;191.45;;;;;;;;;;4995163;28;20081;-76
2021/01/30 08:32:58;;;;;;;270.23;176.00;;;;;;;;;;4996798;28;20030;-76
2021/01/30 08:35:24;;;;;;;270.65;170.20;;;;;;;;;;5014060;28;20396;-76
2021/01/30 08:37:56;;;;;;;245.48;160.65;;;;;;;;;;5025723;28;20041;-76
2021/01/30 08:40:22;;;;;;;;;;;;;;;;;;4988362;28;20037;-76
2021/01/30 08:42:56;;;;;;;219.40;140.93;;;;;;;;;;5013045;28;19913;-77
2021/01/30 08:45:25;;;;;;;206.50;137.85;;;;;;;;;;4997320;28;20060;-76
2021/01/30 08:47:53;;;;;;;192.02;123.22;;;;;;;;;;4981033;28;20038;-76
2021/01/30 08:50:31;;;;;;;182.77;118.60;;;;;;;;;;5013984;28;20041;-76
2021/01/30 08:53:14;;;;;;;169.75;108.03;;;;;;;;;;5013834;28;20104;-77
2021/01/30 08:55:45;;;;;;;174.48;112.03;;;;;;;;;;4997466;28;20042;-76
2021/01/30 08:58:32;;;;;;;155.37;104.57;;;;;;;;;;5013903;28;20034;-77
2021/01/30 09:01:19;;;;;;;146.57;96.32;;;;;;;;;;5015113;28;20037;-77
2021/01/30 09:03:48;;;;;;;130.30;86.93;;;;;;;;;;5026668;28;20495;-76
2021/01/30 09:06:38;;;;;;;124.53;85.07;;;;;;;;;;4979992;28;20377;-77
2021/01/30 09:09:14;;;;;;;120.65;78.97;;;;;;;;;;5012541;28;20484;-77
2021/01/30 09:11:46;;;;;;;109.60;70.53;;;;;;;;;;4996516;28;20030;-78
2021/01/30 09:14:33;;;;;;;96.63;63.97;;;;;;;;;;4997485;28;20465;-76
2021/01/30 09:16:58;;;;;;;96.75;59.25;;;;;;;;;;4997734;28;20034;-76
2021/01/30 09:19:27;;;;;;;84.38;55.17;;;;;;;;;;5001614;28;20041;-76
2021/01/30 09:22:35;;;;;;;85.15;55.33;;;;;;;;;;5026695;28;20026;-76
2021/01/30 09:25:21;;;;;;;76.13;50.60;;;;;;;;;;5013328;28;20045;-76
2021/01/30 09:27:47;;;;;;;80.50;50.20;;;;;;;;;;5007278;28;20042;-75
2021/01/30 09:30:26;;;;;;;73.95;48.45;;;;;;;;;;4992694;28;20145;-76
2021/01/30 09:32:52;;;;;;;70.80;42.88;;;;;;;;;;4991847;28;20057;-76
2021/01/30 09:35:27;;;;;;;59.83;38.28;;;;;;;;;;5011211;28;20105;-74
2021/01/30 09:37:53;;;;;;;56.78;36.47;;;;;;;;;;4992534;28;20038;-74
2021/01/30 09:40:25;;;;;;;56.00;38.78;;;;;;;;;;4992324;28;20038;-75
2021/01/30 09:43:00;;;;;;;56.55;34.45;;;;;;;;;;4997260;28;20029;-76
2021/01/30 09:45:26;;;;;;;48.35;35.03;;;;;;;;;;5001051;28;20152;-75
2021/01/30 09:47:52;;;;;;;50.08;31.98;;;;;;;;;;5013274;28;20037;-75
2021/01/30 09:50:21;;;;;;;48.35;31.50;;;;;;;;;;4979604;28;20040;-75
2021/01/30 09:52:50;;;;;;;47.92;30.60;;;;;;;;;;5001025;28;20037;-75
2021/01/30 09:55:17;;;;;;;43.40;29.60;;;;;;;;;;4995772;28;20472;-76
2021/01/30 09:57:42;;;;;;;44.80;27.75;;;;;;;;;;4995436;28;20034;-76
2021/01/30 10:00:11;;;;;;;43.10;28.45;;;;;;;;;;4979654;28;20088;-76
2021/01/30 10:02:37;;;;;;;41.70;26.42;;;;;;;;;;4979584;28;20033;-76
2021/01/30 10:05:12;;;;;;;37.35;24.67;;;;;;;;;;4994512;28;20381;-76
2021/01/30 10:07:37;;;;;;;39.33;25.13;;;;;;;;;;4995497;28;20072;-76
2021/01/30 10:10:30;;;;;;;37.42;25.85;;;;;;;;;;5000670;28;20119;-76
2021/01/30 10:12:55;;;;;;;35.42;22.40;;;;;;;;;;5004254;28;20117;-76
2021/01/30 10:15:32;;;;;;;37.10;22.67;;;;;;;;;;4993338;28;20586;-76
2021/01/30 10:18:11;;;;;;;33.90;22.73;;;;;;;;;;4993851;28;20122;-75
2021/01/30 10:20:51;;;;;;;32.90;20.38;;;;;;;;;;5000873;28;20127;-75
2021/01/30 10:23:44;;;;;;;31.13;20.13;;;;;;;;;;4997104;28;20032;-76
2021/01/30 10:26:11;;;;;;;32.17;20.25;;;;;;;;;;5007053;28;20046;-76
2021/01/30 10:28:57;;;;;;;27.10;17.70;;;;;;;;;;5011908;28;20540;-76
2021/01/30 10:31:29;;;;;;;26.10;17.25;;;;;;;;;;4994619;28;20034;-76
2021/01/30 10:34:01;;;;;;;24.33;15.82;;;;;;;;;;4995564;28;20056;-76
2021/01/30 10:36:27;;;;;;;22.02;15.60;;;;;;;;;;4994864;28;20499;-76
2021/01/30 10:38:53;;;;;;;22.30;15.82;;;;;;;;;;4974398;28;20031;-76
2021/01/30 10:41:19;;;;;;;22.13;14.15;;;;;;;;;;4989562;28;20033;-75
2021/01/30 10:43:45;;;;;;;18.85;13.65;;;;;;;;;;5013822;28;20040;-76
2021/01/30 10:46:23;;;;;;;19.27;13.20;;;;;;;;;;4985053;28;20439;-75
2021/01/30 10:48:48;;;;;;;17.73;12.52;;;;;;;;;;5012040;28;20040;-75
2021/01/30 10:51:22;;;;;;;17.65;11.18;;;;;;;;;;4994212;28;20034;-82
2021/01/30 10:53:48;;;;;;;18.10;11.10;;;;;;;;;;4984137;28;20061;-87
2021/01/30 10:56:26;;;;;;;16.73;11.10;;;;;;;;;;4962108;28;20440;-76
2021/01/30 10:58:53;;;;;;;15.82;11.38;;;;;;;;;;4996270;28;20053;-75
2021/01/30 11:01:18;;;;;;;15.13;9.77;;;;;;;;;;5010865;28;20033;-76
2021/01/30 11:03:43;;;;;;;15.93;10.45;;;;;;;;;;5011285;28;20026;-75
2021/01/30 11:06:30;;;;;;;15.63;10.70;;;;;;;;;;5012403;28;20044;-79
2021/01/30 11:09:01;;;;;;;14.65;9.77;;;;;;;;;;4980299;28;20049;-77
2021/01/30 11:11:28;;;;;;;12.55;8.93;;;;;;;;;;4958843;28;20026;-76
2021/01/30 11:13:54;;;;;;;11.82;8.10;;;;;;;;;;4975104;28;20042;-76
2021/01/30 11:16:24;;;;;;;14.40;9.27;;;;;;;;;;5000504;28;20029;-77
2021/01/30 11:18:50;;;;;;;15.32;9.52;;;;;;;;;;4994260;28;20030;-77
2021/01/30 11:21:37;;;;;;;13.70;8.68;;;;;;;;;;4994146;28;20455;-77
2021/01/30 11:24:24;;;;;;;14.88;7.88;;;;;;;;;;5005306;28;20022;-77
2021/01/30 11:26:50;;;;;;;13.15;8.63;;;;;;;;;;4991309;28;20449;-78
2021/01/30 11:29:37;;;;;;;14.40;9.00;;;;;;;;;;4974685;28;20112;-77
2021/01/30 11:32:04;;;;;;;12.30;7.80;;;;;;;;;;4990566;28;20041;-77
2021/01/30 11:34:29;;;;;;;11.63;7.90;;;;;;;;;;4975493;28;20495;-77
2021/01/30 11:36:55;;;;;;;13.02;7.78;;;;;;;;;;4960170;28;20087;-76
2021/01/30 11:39:31;;;;;;;10.35;6.85;;;;;;;;;;4994192;28;20042;-76
2021/01/30 11:41:57;;;;;;;12.73;7.40;;;;;;;;;;4994818;28;20029;-76
2021/01/30 11:44:23;;;;;;;10.77;7.15;;;;;;;;;;4995295;28;20066;-77
2021/01/30 11:46:49;;;;;;;269.42;159.77;;;;;;;;;;4978918;28;20038;-77
2021/01/30 11:49:14;;;;;;;126.68;81.78;;;;;;;;;;5000343;28;20026;-77
2021/01/30 11:51:40;;;;;;;92.65;61.47;;;;;;;;;;4977225;28;20071;-77
2021/01/30 11:54:05;;;;;;;82.15;53.97;;;;;;;;;;4990399;28;20065;-77
2021/01/30 11:56:31;;;;;;;68.07;44.85;;;;;;;;;;4976691;28;20050;-77
2021/01/30 11:58:56;;;;;;;62.30;39.17;;;;;;;;;;4994551;28;20099;-77
2021/01/30 12:01:22;;;;;;;53.28;34.72;;;;;;;;;;4994386;28;20038;-77
2021/01/30 12:03:48;;;;;;;53.22;32.35;;;;;;;;;;4997350;28;20072;-77
2021/01/30 12:06:13;;;;;;;46.30;29.40;;;;;;;;;;4981683;28;20033;-77
2021/01/30 12:08:39;;;;;;;45.22;28.67;;;;;;;;;;4981655;28;20042;-78
2021/01/30 12:11:05;;;;;;;40.65;27.25;;;;;;;;;;4963985;28;20377;-77
2021/01/30 12:13:31;;;;;;;38.92;25.42;;;;;;;;;;4981987;28;20034;-76
2021/01/30 12:15:56;;;;;;;38.28;24.48;;;;;;;;;;4965314;28;20026;-77
2021/01/30 12:18:22;;;;;;;34.17;25.25;;;;;;;;;;5013760;28;20030;-76
2021/01/30 12:20:50;;;;;;;38.35;23.98;;;;;;;;;;4981501;28;20044;-76
2021/01/30 12:23:15;;;;;;;36.17;23.05;;;;;;;;;;5013755;28;20060;-76
2021/01/30 12:25:41;;;;;;;32.28;21.40;;;;;;;;;;4980893;28;20488;-77
2021/01/30 12:28:07;;;;;;;29.17;19.73;;;;;;;;;;4981256;28;20044;-79
2021/01/30 12:30:34;;;;;;;35.60;20.77;;;;;;;;;;4997251;28;20041;-78
2021/01/30 12:33:00;;;;;;;32.70;20.50;;;;;;;;;;4997072;28;20040;-78
2021/01/30 12:35:27;;;;;;;27.80;16.88;;;;;;;;;;5013536;28;20037;-79
2021/01/30 12:37:52;;;;;;;28.20;16.83;;;;;;;;;;4997055;28;20427;-77
2021/01/30 12:40:20;;;;;;;28.35;17.50;;;;;;;;;;4997084;28;20041;-77
2021/01/30 12:42:46;;;;;;;26.02;15.30;;;;;;;;;;4993985;28;20038;-77
2021/01/30 12:45:12;;;;;;;24.38;14.77;;;;;;;;;;4980522;28;20038;-77
2021/01/30 12:47:38;;;;;;;26.63;15.73;;;;;;;;;;5021795;28;20041;-77
2021/01/30 12:50:05;;;;;;;24.92;14.02;;;;;;;;;;5017748;28;20034;-79
2021/01/30 12:52:30;;;;;;;21.15;12.82;;;;;;;;;;4995439;28;20038;-78
2021/01/30 12:54:56;;;;;;;17.17;11.35;;;;;;;;;;4996473;28;20037;-78
2021/01/30 12:57:21;;;;;;;18.15;12.05;;;;;;;;;;4997293;28;20038;-78
2021/01/30 12:59:47;;;;;;;18.80;12.18;;;;;;;;;;4991816;28;20030;-77
2021/01/30 13:02:12;;;;;;;21.92;10.95;;;;;;;;;;4997598;28;20549;-77
2021/01/30 13:04:37;;;;;;;18.92;11.20;;;;;;;;;;5007364;28;20033;-78
2021/01/30 13:07:04;;;;;;;18.73;11.15;;;;;;;;;;4995586;28;20053;-78
2021/01/30 13:09:30;;;;;;;14.50;10.48;;;;;;;;;;4980237;28;20034;-78
2021/01/30 13:11:55;;;;;;;16.85;9.07;;;;;;;;;;5012998;28;20048;-79
2021/01/30 13:14:21;;;;;;;14.02;9.32;;;;;;;;;;4980140;28;20042;-81
2021/01/30 13:16:46;;;;;;;13.50;8.60;;;;;;;;;;4996376;28;20033;-80
2021/01/30 13:19:13;;;;;;;13.35;8.25;;;;;;;;;;4996624;28;20034;-80
2021/01/30 13:21:38;;;;;;;12.18;7.35;;;;;;;;;;4999185;28;20045;-80
2021/01/30 13:24:04;;;;;;;11.02;7.22;;;;;;;;;;5032028;28;20033;-80
2021/01/30 13:26:30;;;;;;;12.10;7.68;;;;;;;;;;5016030;28;20472;-80
2021/01/30 13:28:55;;;;;;;12.75;8.52;;;;;;;;;;4999355;28;20034;-81
2021/01/30 13:31:20;;;;;;;11.13;7.78;;;;;;;;;;5007703;28;20547;-80
2021/01/30 13:33:46;;;;;;;12.05;7.20;;;;;;;;;;4983229;28;20025;-81
2021/01/30 13:36:11;;;;;;;12.40;7.63;;;;;;;;;;5028580;28;20040;-80
2021/01/30 13:38:37;;;;;;;11.20;6.60;;;;;;;;;;4993091;28;20064;-80
2021/01/30 13:41:02;;;;;;;17.00;8.20;;;;;;;;;;4993829;28;20037;-80
2021/01/30 13:43:28;;;;;;;11.75;7.65;;;;;;;;;;4979703;28;20034;-80
2021/01/30 13:45:53;;;;;;;10.65;6.90;;;;;;;;;;4979619;28;20495;-80
2021/01/30 13:48:18;;;;;;;12.80;7.65;;;;;;;;;;5012139;28;20033;-80
2021/01/30 13:50:44;;;;;;;12.40;6.45;;;;;;;;;;5025835;28;20034;-80
2021/01/30 13:53:10;;;;;;;11.18;5.95;;;;;;;;;;4975661;28;20424;-79
2021/01/30 13:55:35;;;;;;;8.63;5.43;;;;;;;;;;4975967;28;20133;-80
2021/01/30 13:58:01;;;;;;;11.32;6.25;;;;;;;;;;4976152;28;20400;-80
2021/01/30 14:00:26;;;;;;;11.38;6.00;;;;;;;;;;4960368;28;20065;-80
2021/01/30 14:02:52;;;;;;;11.32;5.53;;;;;;;;;;5004308;28;20350;-80
2021/01/30 14:05:25;;;;;;;9.02;5.05;;;;;;;;;;4995640;28;20099;-78
2021/01/30 14:08:00;;;;;;;8.82;5.50;;;;;;;;;;4995904;28;20029;-77
2021/01/30 14:10:26;;;;;;;9.32;5.32;;;;;;;;;;4991918;28;20034;-78
2021/01/30 14:12:51;;;;;;;9.00;4.63;;;;;;;;;;4992527;28;20052;-78
2021/01/30 14:15:17;;;;;;;9.70;5.22;;;;;;;;;;4994738;28;20472;-79
2021/01/30 14:17:43;;;;;;;8.70;5.35;;;;;;;;;;4977729;28;20018;-79
2021/01/30 14:20:08;;;;;;;7.18;4.32;;;;;;;;;;4978719;28;20030;-77
2021/01/30 14:22:34;;;;;;;9.10;4.78;;;;;;;;;;5010885;28;20032;-78
2021/01/30 14:24:59;;;;;;;6.13;4.20;;;;;;;;;;5010447;28;20044;-78
2021/01/30 14:27:25;;;;;;;8.40;4.07;;;;;;;;;;4994729;28;20041;-78
2021/01/30 14:29:51;;;;;;;8.55;4.70;;;;;;;;;;4976477;28;20030;-78
2021/01/30 14:32:19;;;;;;;6.57;4.20;;;;;;;;;;4977019;28;20116;-79
2021/01/30 14:34:45;;;;;;;7.40;4.45;;;;;;;;;;4994231;28;20090;-79
2021/01/30 14:37:10;;;;;;;7.53;3.75;;;;;;;;;;5011400;28;20026;-79
2021/01/30 14:39:35;;;;;;;7.03;3.85;;;;;;;;;;4994185;28;20045;-78
2021/01/30 14:42:01;;;;;;;5.97;3.55;;;;;;;;;;4978807;28;20488;-77
2021/01/30 14:44:26;;;;;;;6.07;3.75;;;;;;;;;;4995013;28;20037;-77
2021/01/30 14:46:52;;;;;;;6.57;3.92;;;;;;;;;;5010552;28;20026;-77
2021/01/30 14:49:17;;;;;;;7.90;4.30;;;;;;;;;;4998962;28;20136;-77
2021/01/30 14:51:43;;;;;;;7.47;3.35;;;;;;;;;;5013402;28;20052;-77